createdAt,value
2022-09-28T00:02:09.750Z,99560.88
2022-09-28T00:04:36.191Z,99558.47
2022-09-28T00:07:02.486Z,99562.50
2022-09-28T00:09:28.774Z,99558.03
2022-09-28T00:11:55.319Z,99546.91
2022-09-28T00:14:21.858Z,99530.91
2022-09-28T00:16:48.277Z,99549.28
2022-09-28T00:19:14.695Z,99555.09
2022-09-28T00:21:42.290Z,99559.75
2022-09-28T00:24:13.153Z,99544.53
2022-09-28T00:26:43.259Z,99538.03
2022-09-28T00:29:23.060Z,99533.50
2022-09-28T00:31:52.154Z,99549.75
2022-09-28T00:34:18.842Z,99547.78
2022-09-28T00:36:46.708Z,99548.47
2022-09-28T00:39:15.079Z,99548.69
2022-09-28T00:41:42.043Z,99536.09
2022-09-28T00:44:26.787Z,99550.16
2022-09-28T00:47:01.363Z,99551.63
2022-09-28T00:49:34.239Z,99546.59
2022-09-28T00:52:03.251Z,99542.06
2022-09-28T00:54:29.590Z,99542.63
2022-09-28T00:56:56.834Z,99545.47
2022-09-28T00:59:23.262Z,99542.06
2022-09-28T01:01:49.609Z,99543.84
2022-09-28T01:04:17.262Z,99524.88
2022-09-28T01:06:45.231Z,99541.69
2022-09-28T01:09:13.876Z,99532.28
2022-09-28T01:11:40.843Z,99533.84
2022-09-28T01:14:11.717Z,99528.31
2022-09-28T01:16:47.879Z,99539.19
2022-09-28T01:19:50.955Z,99527.59
2022-09-28T01:22:30.881Z,99527.69
2022-09-28T01:25:34.864Z,99529.38
2022-09-28T01:28:28.978Z,99529.91
2022-09-28T01:31:08.724Z,99513.06
2022-09-28T01:33:44.570Z,99520.41
2022-09-28T01:36:28.274Z,99526.25
2022-09-28T01:39:10.946Z,99516.78
2022-09-28T01:41:40.094Z,99506.66
2022-09-28T01:44:10.651Z,99525.69
2022-09-28T01:46:42.177Z,99526.00
2022-09-28T01:49:19.646Z,99527.84
2022-09-28T01:51:59.602Z,99516.56
2022-09-28T01:54:31.723Z,99525.63
2022-09-28T01:57:09.004Z,99518.50
2022-09-28T01:59:39.632Z,99529.50
2022-09-28T02:02:15.565Z,99521.94
2022-09-28T02:04:58.544Z,99520.78
2022-09-28T02:07:31.253Z,99518.00
2022-09-28T02:10:03.971Z,99524.53
2022-09-28T02:12:34.619Z,99506.94
2022-09-28T02:15:17.931Z,99507.09
2022-09-28T02:17:44.659Z,99510.69
2022-09-28T02:20:11.287Z,99520.78
2022-09-28T02:22:49.098Z,99517.97
2022-09-28T02:25:28.144Z,99512.31
2022-09-28T02:28:02.731Z,99517.44
2022-09-28T02:30:35.657Z,99517.44
2022-09-28T02:33:10.510Z,99538.16
2022-09-28T02:35:38.215Z,99531.69
2022-09-28T02:38:04.556Z,99536.50
2022-09-28T02:40:36.175Z,99530.81
2022-09-28T02:43:15.981Z,99532.22
2022-09-28T02:46:30.643Z,99544.22
2022-09-28T02:49:26.019Z,99543.00
2022-09-28T02:52:06.712Z,99545.97
2022-09-28T02:54:32.977Z,99543.94
2022-09-28T02:57:17.769Z,99548.94
2022-09-28T03:00:07.424Z,99534.38
2022-09-28T03:02:53.996Z,99542.34
2022-09-28T03:05:45.913Z,99556.34
2022-09-28T03:08:33.687Z,99551.13
2022-09-28T03:11:04.490Z,99538.94
2022-09-28T03:13:31.673Z,99546.69
2022-09-28T03:16:30.368Z,99557.69
2022-09-28T03:18:56.674Z,99553.28
2022-09-28T03:21:23.016Z,99543.06
2022-09-28T03:23:49.413Z,99550.44
2022-09-28T03:26:15.705Z,99547.63
2022-09-28T03:28:42.367Z,99535.09
2022-09-28T03:31:08.779Z,99549.41
2022-09-28T03:33:35.196Z,99552.59
2022-09-28T03:36:01.695Z,99550.00
2022-09-28T03:38:28.071Z,99537.63
2022-09-28T03:40:59.636Z,99555.00
2022-09-28T03:43:27.476Z,99549.00
2022-09-28T03:45:55.872Z,99530.59
2022-09-28T03:48:32.671Z,99534.81
2022-09-28T03:51:02.036Z,99534.81
2022-09-28T03:53:28.580Z,99529.78
2022-09-28T03:55:55.626Z,99540.38
2022-09-28T03:58:22.869Z,99541.16
2022-09-28T04:00:49.925Z,99537.78
2022-09-28T04:03:16.295Z,99530.16
2022-09-28T04:05:50.463Z,99542.78
2022-09-28T04:08:17.032Z,99543.78
2022-09-28T04:10:43.344Z,99544.56
2022-09-28T04:13:10.733Z,99527.06
2022-09-28T04:15:37.074Z,99543.78
2022-09-28T04:18:03.466Z,99526.50
2022-09-28T04:20:29.759Z,99543.19
2022-09-28T04:22:57.910Z,99547.63
2022-09-28T04:25:24.285Z,99555.22
2022-09-28T04:27:50.580Z,99545.81
2022-09-28T04:30:16.990Z,99552.59
2022-09-28T04:32:43.366Z,99552.59
2022-09-28T04:35:11.676Z,99555.22
2022-09-28T04:37:37.968Z,99542.03
2022-09-28T04:40:04.707Z,99535.69
2022-09-28T04:42:31.018Z,99550.81
2022-09-28T04:44:57.353Z,99554.22
2022-09-28T04:47:23.699Z,99544.66
2022-09-28T04:49:50.005Z,99541.47
2022-09-28T04:52:18.518Z,99548.50
2022-09-28T04:54:45.139Z,99539.88
2022-09-28T04:57:11.434Z,99540.91
2022-09-28T04:59:37.805Z,99550.66
2022-09-28T05:02:04.526Z,99553.28
2022-09-28T05:04:30.922Z,99537.50
2022-09-28T05:06:57.863Z,99551.13
2022-09-28T05:09:24.426Z,99549.50
2022-09-28T05:11:51.507Z,99536.97
2022-09-28T05:14:17.811Z,99540.81
2022-09-28T05:16:44.845Z,99542.06
2022-09-28T05:19:11.425Z,99546.84
2022-09-28T05:21:37.806Z,99547.34
2022-09-28T05:24:04.197Z,99552.22
2022-09-28T05:26:30.486Z,99557.47
2022-09-28T05:28:56.753Z,99555.94
2022-09-28T05:31:23.052Z,99555.06
2022-09-28T05:33:49.530Z,99559.69
2022-09-28T05:36:15.837Z,99557.97
2022-09-28T05:38:42.178Z,99560.44
2022-09-28T05:41:08.572Z,99560.84
2022-09-28T05:43:34.955Z,99551.06
2022-09-28T05:46:01.300Z,99541.13
2022-09-28T05:48:27.727Z,99541.13
2022-09-28T05:50:54.342Z,99549.75
2022-09-28T05:53:21.205Z,99555.16
2022-09-28T05:55:47.972Z,99543.44
2022-09-28T05:58:14.291Z,99540.03
2022-09-28T06:00:40.506Z,99561.91
2022-09-28T06:03:10.463Z,99559.03
2022-09-28T06:05:38.074Z,99563.81
2022-09-28T06:08:05.745Z,99566.44
2022-09-28T06:10:33.392Z,99565.63
2022-09-28T06:13:00.533Z,99560.47
2022-09-28T06:15:29.764Z,99561.69
2022-09-28T06:18:05.223Z,99562.72
2022-09-28T06:20:34.755Z,99581.69
2022-09-28T06:23:01.090Z,99566.31
2022-09-28T06:25:27.564Z,99569.94
2022-09-28T06:28:01.993Z,99577.91
2022-09-28T06:30:29.884Z,99587.53
2022-09-28T06:32:58.373Z,99584.34
2022-09-28T06:35:26.872Z,99574.34
2022-09-28T06:37:53.901Z,99576.75
2022-09-28T06:40:21.510Z,99582.16
2022-09-28T06:43:09.731Z,99586.38
2022-09-28T06:45:37.182Z,99591.00
2022-09-28T06:48:03.972Z,99599.81
2022-09-28T06:50:36.354Z,99587.44
2022-09-28T06:53:04.277Z,99590.84
2022-09-28T06:55:31.117Z,99594.59
2022-09-28T06:58:05.234Z,99583.97
2022-09-28T07:00:34.696Z,99603.03
2022-09-28T07:03:06.913Z,99604.75
2022-09-28T07:05:34.822Z,99612.00
2022-09-28T07:08:01.396Z,99620.00
2022-09-28T07:10:29.674Z,99618.09
2022-09-28T07:12:57.414Z,99613.69
2022-09-28T07:15:24.600Z,99617.09
2022-09-28T07:18:01.854Z,99619.13
2022-09-28T07:20:29.573Z,99616.47
2022-09-28T07:23:11.829Z,99616.56
2022-09-28T07:25:42.657Z,99624.38
2022-09-28T07:28:09.064Z,99618.16
2022-09-28T07:30:35.738Z,99610.94
2022-09-28T07:33:04.041Z,99625.72
2022-09-28T07:35:30.365Z,99613.47
2022-09-28T07:38:01.269Z,99623.41
2022-09-28T07:40:28.277Z,99615.59
2022-09-28T07:42:54.685Z,99614.88
2022-09-28T07:45:21.106Z,99633.38
2022-09-28T07:47:47.455Z,99626.81
2022-09-28T07:50:13.804Z,99624.59
2022-09-28T07:52:40.120Z,99631.88
2022-09-28T07:55:07.586Z,99628.69
2022-09-28T07:57:34.140Z,99634.84
2022-09-28T08:00:00.702Z,99631.41
2022-09-28T08:02:27.064Z,99633.25
2022-09-28T08:04:53.502Z,99639.53
2022-09-28T08:07:23.651Z,99648.63
2022-09-28T08:09:50.452Z,99648.59
2022-09-28T08:12:17.264Z,99644.44
2022-09-28T08:14:43.617Z,99650.47
2022-09-28T08:17:09.946Z,99665.00
2022-09-28T08:19:36.247Z,99662.38
2022-09-28T08:22:02.597Z,99659.16
2022-09-28T08:24:29.105Z,99664.41
2022-09-28T08:26:55.450Z,99662.22
2022-09-28T08:29:21.745Z,99659.69
2022-09-28T08:31:48.480Z,99664.72
2022-09-28T08:34:14.842Z,99659.00
2022-09-28T08:36:41.364Z,99670.53
2022-09-28T08:39:07.687Z,99663.66
2022-09-28T08:41:55.451Z,99671.09
2022-09-28T08:44:25.036Z,99677.56
2022-09-28T08:46:56.648Z,99671.31
2022-09-28T08:49:32.072Z,99674.78
2022-09-28T08:52:07.736Z,99675.09
2022-09-28T08:54:53.469Z,99686.00
2022-09-28T08:57:27.427Z,99689.03
2022-09-28T08:59:56.514Z,99679.44
2022-09-28T09:02:28.435Z,99687.16
2022-09-28T09:04:57.028Z,99688.31
2022-09-28T09:07:48.921Z,99681.38
2022-09-28T09:10:23.229Z,99693.03
2022-09-28T09:13:11.507Z,99698.84
2022-09-28T09:15:50.785Z,99699.78
2022-09-28T09:18:28.739Z,99689.94
2022-09-28T09:21:03.172Z,99699.19
2022-09-28T09:23:47.159Z,99690.97
2022-09-28T09:26:22.382Z,99691.75
2022-09-28T09:29:26.623Z,99699.16
2022-09-28T09:32:08.045Z,99695.88
2022-09-28T09:34:56.218Z,99699.94
2022-09-28T09:37:42.540Z,99698.13
2022-09-28T09:40:34.098Z,99696.94
2022-09-28T09:43:19.193Z,99705.75
2022-09-28T09:46:00.454Z,99712.31
2022-09-28T09:48:52.354Z,99721.34
2022-09-28T09:51:25.071Z,99719.03
2022-09-28T09:53:59.272Z,99716.75
2022-09-28T09:56:40.256Z,99716.88
2022-09-28T09:59:21.845Z,99704.25
2022-09-28T10:01:48.766Z,99694.72
2022-09-28T10:04:25.954Z,99704.50
2022-09-28T10:06:58.775Z,99713.72
2022-09-28T10:09:36.780Z,99712.34
2022-09-28T10:12:03.326Z,99712.44
2022-09-28T10:14:29.812Z,99716.63
2022-09-28T10:16:57.963Z,99715.69
2022-09-28T10:19:35.336Z,99709.69
2022-09-28T10:22:04.688Z,99708.34
2022-09-28T10:24:45.519Z,99717.59
2022-09-28T10:27:17.075Z,99716.81
2022-09-28T10:29:50.632Z,99710.69
2022-09-28T10:32:35.899Z,99699.78
2022-09-28T10:35:12.778Z,99716.16
2022-09-28T10:38:03.571Z,99712.22
2022-09-28T10:40:52.797Z,99719.72
2022-09-28T10:43:57.425Z,99723.38
2022-09-28T10:46:24.484Z,99710.50
2022-09-28T10:49:06.700Z,99722.78
2022-09-28T10:51:47.345Z,99714.63
2022-09-28T10:54:17.630Z,99712.22
2022-09-28T10:56:45.248Z,99712.72
2022-09-28T10:59:26.706Z,99716.50
2022-09-28T11:02:12.543Z,99711.66
2022-09-28T11:04:42.619Z,99710.84
2022-09-28T11:07:20.361Z,99710.69
2022-09-28T11:09:49.096Z,99702.66
2022-09-28T11:12:18.038Z,99712.06
2022-09-28T11:14:44.654Z,99726.66
2022-09-28T11:17:35.005Z,99715.59
2022-09-28T11:20:27.488Z,99726.19
2022-09-28T11:22:56.066Z,99723.91
2022-09-28T11:25:25.724Z,99722.19
2022-09-28T11:27:52.018Z,99722.03
2022-09-28T11:30:45.882Z,99717.63
2022-09-28T11:33:16.403Z,99728.84
2022-09-28T11:36:05.216Z,99705.16
2022-09-28T11:38:56.033Z,99717.25
2022-09-28T11:41:50.529Z,99724.63
2022-09-28T11:44:38.926Z,99696.56
2022-09-28T11:47:22.582Z,99716.03
2022-09-28T11:50:36.336Z,99708.03
2022-09-28T11:53:29.573Z,99718.19
2022-09-28T11:56:09.191Z,99712.06
2022-09-28T11:58:42.884Z,99705.72
2022-09-28T12:01:24.379Z,99716.22
2022-09-28T12:03:57.047Z,99700.13
2022-09-28T12:06:37.318Z,99714.47
2022-09-28T12:09:13.067Z,99712.47
2022-09-28T12:11:42.612Z,99721.19
2022-09-28T12:14:18.427Z,99713.00
2022-09-28T12:17:08.022Z,99712.47
2022-09-28T12:20:00.425Z,99695.41
2022-09-28T12:22:45.997Z,99710.47
2022-09-28T12:25:19.350Z,99710.00
2022-09-28T12:27:53.987Z,99714.28
2022-09-28T12:30:22.698Z,99710.59
2022-09-28T12:33:08.330Z,99715.69
2022-09-28T12:35:56.754Z,99709.06
2022-09-28T12:39:08.407Z,99705.59
2022-09-28T12:41:42.449Z,99707.50
2022-09-28T12:44:22.171Z,99713.31
2022-09-28T12:47:17.464Z,99713.72
2022-09-28T12:53:16.946Z,99710.06
2022-09-28T12:55:55.410Z,99711.91
2022-09-28T12:58:24.678Z,99711.31
2022-09-28T13:01:06.482Z,99698.22
2022-09-28T13:03:49.038Z,99711.97
2022-09-28T13:06:41.357Z,99693.78
2022-09-28T13:09:15.957Z,99696.44
2022-09-28T13:11:54.455Z,99706.97
2022-09-28T13:14:49.834Z,99701.72
2022-09-28T13:17:39.366Z,99708.03
2022-09-28T13:20:17.442Z,99700.13
2022-09-28T13:23:16.214Z,99703.53
2022-09-28T13:25:49.588Z,99709.91
2022-09-28T13:28:20.092Z,99696.69
2022-09-28T13:30:49.161Z,99692.44
2022-09-28T13:33:37.962Z,99695.88
2022-09-28T13:36:30.146Z,99691.34
2022-09-28T13:38:58.682Z,99685.56
2022-09-28T13:41:33.368Z,99693.22
2022-09-28T13:44:11.784Z,99688.75
2022-09-28T13:46:38.194Z,99686.38
2022-09-28T13:49:15.941Z,99694.81
2022-09-28T13:51:57.649Z,99695.88
2022-09-28T13:54:43.226Z,99690.63
2022-09-28T13:57:23.250Z,99697.75
2022-09-28T14:00:19.453Z,99698.81
2022-09-28T14:02:56.742Z,99708.34
2022-09-28T14:05:23.022Z,99708.34
2022-09-28T14:08:30.324Z,99707.03
2022-09-28T14:11:17.369Z,99707.81
2022-09-28T14:13:43.632Z,99707.00
2022-09-28T14:16:21.036Z,99699.63
2022-09-28T14:18:52.660Z,99711.47
2022-09-28T14:21:34.966Z,99713.84
2022-09-28T14:24:46.209Z,99710.34
2022-09-28T14:27:47.825Z,99695.25
2022-09-28T14:30:14.049Z,99701.56
2022-09-28T14:32:45.066Z,99698.38
2022-09-28T14:35:26.255Z,99710.75
2022-09-28T14:37:59.073Z,99707.88
2022-09-28T14:40:30.475Z,99705.25
2022-09-28T14:43:35.270Z,99714.22
2022-09-28T14:46:10.719Z,99719.00
2022-09-28T14:48:50.791Z,99712.97
2022-09-28T14:51:26.015Z,99719.03
2022-09-28T14:54:01.272Z,99705.38
2022-09-28T14:56:38.737Z,99709.88
2022-09-28T14:59:07.167Z,99710.13
2022-09-28T15:01:35.538Z,99715.16
2022-09-28T15:04:07.013Z,99724.16
2022-09-28T15:06:51.885Z,99726.28
2022-09-28T15:09:30.545Z,99729.72
2022-09-28T15:12:05.425Z,99732.06
2022-09-28T15:14:35.010Z,99724.41
2022-09-28T15:17:09.667Z,99744.19
2022-09-28T15:20:14.794Z,99746.00
2022-09-28T15:22:48.804Z,99744.41
2022-09-28T15:25:18.156Z,99741.16
2022-09-28T15:27:44.474Z,99735.59
2022-09-28T15:30:25.007Z,99747.19
2022-09-28T15:32:56.104Z,99748.22
2022-09-28T15:35:27.381Z,99754.00
2022-09-28T15:37:55.336Z,99747.06
2022-09-28T15:40:33.046Z,99746.28
2022-09-28T15:42:59.913Z,99758.97
2022-09-28T15:45:36.986Z,99768.44
2022-09-28T15:48:26.715Z,99775.50
2022-09-28T15:51:07.337Z,99778.94
2022-09-28T15:53:33.868Z,99779.19
2022-09-28T15:56:04.074Z,99769.94
2022-09-28T15:58:30.386Z,99788.38
2022-09-28T16:01:31.295Z,99790.97
2022-09-28T16:03:57.623Z,99787.19
2022-09-28T16:06:24.107Z,99786.06
2022-09-28T16:08:50.416Z,99800.78
2022-09-28T16:11:24.751Z,99794.72
2022-09-28T16:13:59.931Z,99802.84
2022-09-28T16:16:29.891Z,99794.34
2022-09-28T16:18:58.924Z,99783.69
2022-09-28T16:21:48.110Z,99791.09
2022-09-28T16:24:28.454Z,99778.31
2022-09-28T16:27:03.951Z,99781.47
2022-09-28T16:29:38.965Z,99790.06
2022-09-28T16:32:23.705Z,99796.09
2022-09-28T16:35:26.801Z,99796.53
2022-09-28T16:37:56.623Z,99803.03
2022-09-28T16:40:23.340Z,99797.44
2022-09-28T16:42:50.059Z,99790.69
2022-09-28T16:45:21.456Z,99795.59
2022-09-28T16:47:47.873Z,99774.03
2022-09-28T16:50:15.055Z,99800.13
2022-09-28T16:52:41.490Z,99798.72
2022-09-28T16:55:35.843Z,99815.72
2022-09-28T16:57:57.375Z,99810.31
2022-09-28T17:00:25.627Z,99809.91
2022-09-28T17:02:53.163Z,99816.66
2022-09-28T17:05:20.338Z,99807.19
2022-09-28T17:07:48.766Z,99825.00
2022-09-28T17:10:20.350Z,99813.75
2022-09-28T17:12:46.662Z,99830.22
2022-09-28T17:15:13.094Z,99828.72
2022-09-28T17:17:39.430Z,99816.25
2022-09-28T17:20:18.053Z,99826.34
2022-09-28T17:22:44.373Z,99837.53
2022-09-28T17:25:12.705Z,99843.31
2022-09-28T17:27:41.497Z,99840.81
2022-09-28T17:30:09.858Z,99849.97
2022-09-28T17:32:37.369Z,99843.38
2022-09-28T17:35:23.695Z,99847.16
2022-09-28T17:37:50.264Z,99849.00
2022-09-28T17:40:20.168Z,99853.59
2022-09-28T17:42:47.275Z,99853.69
2022-09-28T17:45:17.110Z,99846.63
2022-09-28T17:47:44.448Z,99853.09
2022-09-28T17:50:44.347Z,99865.38
2022-09-28T17:53:13.409Z,99854.47
2022-09-28T17:55:40.156Z,99855.94
2022-09-28T17:58:20.525Z,99840.66
2022-09-28T18:00:48.346Z,99853.53
2022-09-28T18:03:22.728Z,99846.47
2022-09-28T18:05:52.830Z,99841.88
2022-09-28T18:08:20.949Z,99836.88
2022-09-28T18:10:47.273Z,99835.38
2022-09-28T18:13:14.103Z,99852.31
2022-09-28T18:15:40.953Z,99856.03
2022-09-28T18:18:07.300Z,99842.53
2022-09-28T18:20:34.508Z,99850.59
2022-09-28T18:23:00.812Z,99846.72
2022-09-28T18:25:27.159Z,99860.66
2022-09-28T18:27:53.483Z,99854.50
2022-09-28T18:30:19.809Z,99856.97
2022-09-28T18:32:46.134Z,99847.84
2022-09-28T18:35:12.467Z,99860.53
2022-09-28T18:37:40.499Z,99872.81
2022-09-28T18:40:11.071Z,99884.94
2022-09-28T18:42:37.370Z,99869.75
2022-09-28T18:45:04.706Z,99876.56
2022-09-28T18:47:31.320Z,99857.84
2022-09-28T18:49:57.632Z,99878.25
2022-09-28T18:52:24.449Z,99870.47
2022-09-28T18:54:50.770Z,99870.47
2022-09-28T18:57:18.168Z,99882.31
2022-09-28T18:59:45.222Z,99880.13
2022-09-28T19:02:12.420Z,99885.53
2022-09-28T19:04:39.307Z,99871.97
2022-09-28T19:07:06.458Z,99883.78
2022-09-28T19:09:33.246Z,99871.44
2022-09-28T19:11:59.916Z,99886.88
2022-09-28T19:14:26.525Z,99882.94
2022-09-28T19:16:52.874Z,99893.44
2022-09-28T19:19:20.480Z,99899.28
2022-09-28T19:21:47.021Z,99891.16
2022-09-28T19:24:18.326Z,99885.41
2022-09-28T19:26:45.196Z,99901.25
2022-09-28T19:29:11.956Z,99894.88
2022-09-28T19:31:38.713Z,99892.66
2022-09-28T19:34:05.730Z,99883.09
2022-09-28T19:36:32.920Z,99894.09
2022-09-28T19:39:00.532Z,99887.78
2022-09-28T19:41:28.949Z,99902.97
2022-09-28T19:43:55.250Z,99888.44
2022-09-28T19:46:21.523Z,99905.84
2022-09-28T19:48:47.879Z,99898.47
2022-09-28T19:51:14.164Z,99895.06
2022-09-28T19:53:40.494Z,99898.91
2022-09-28T19:56:06.818Z,99897.72
2022-09-28T19:58:35.629Z,99904.53
2022-09-28T20:01:06.383Z,99905.59
2022-09-28T20:03:33.711Z,99911.59
2022-09-28T20:06:00.777Z,99912.81
2022-09-28T20:08:28.405Z,99908.41
2022-09-28T20:10:55.683Z,99920.63
2022-09-28T20:13:23.560Z,99908.00
2022-09-28T20:15:50.007Z,99921.03
2022-09-28T20:18:16.642Z,99916.66
2022-09-28T20:20:42.962Z,99915.28
2022-09-28T20:23:09.567Z,99906.50
2022-09-28T20:25:35.891Z,99907.16
2022-09-28T20:28:02.421Z,99922.94
2022-09-28T20:30:28.744Z,99922.56
2022-09-28T20:32:55.129Z,99919.97
2022-09-28T20:35:30.615Z,99921.16
2022-09-28T20:37:58.792Z,99921.59
2022-09-28T20:40:25.131Z,99921.97
2022-09-28T20:42:51.469Z,99920.59
2022-09-28T20:45:17.787Z,99928.81
2022-09-28T20:47:44.006Z,99933.41
2022-09-28T20:50:10.309Z,99923.44
2022-09-28T20:52:36.570Z,99930.66
2022-09-28T20:55:02.970Z,99928.44
2022-09-28T20:57:29.294Z,99932.25
2022-09-28T20:59:55.522Z,99926.66
2022-09-28T21:02:21.926Z,99918.25
2022-09-28T21:04:48.325Z,99921.06
2022-09-28T21:07:14.546Z,99938.28
2022-09-28T21:09:40.859Z,99919.88
2022-09-28T21:12:07.070Z,99939.88
2022-09-28T21:14:33.390Z,99941.88
2022-09-28T21:16:59.941Z,99942.69
2022-09-28T21:19:26.250Z,99929.50
2022-09-28T21:21:52.547Z,99945.88
2022-09-28T21:24:18.915Z,99944.31
2022-09-28T21:26:45.381Z,99946.72
2022-09-28T21:29:13.752Z,99951.09
2022-09-28T21:31:45.321Z,99953.91
2022-09-28T21:34:16.974Z,99952.31
2022-09-28T21:36:43.372Z,99959.53
2022-09-28T21:39:10.588Z,99951.91
2022-09-28T21:41:37.431Z,99963.34
2022-09-28T21:44:03.799Z,99965.53
2022-09-28T21:46:30.155Z,99962.94
2022-09-28T21:48:56.480Z,99965.34
2022-09-28T21:51:23.184Z,99971.53
2022-09-28T21:53:49.533Z,99977.16
2022-09-28T21:56:16.068Z,99962.72
2022-09-28T21:58:42.404Z,99981.34
2022-09-28T22:01:11.546Z,99982.16
2022-09-28T22:03:37.855Z,99960.31
2022-09-28T22:06:04.696Z,99989.16
2022-09-28T22:08:31.346Z,99975.94
2022-09-28T22:10:59.714Z,99995.34
2022-09-28T22:13:27.595Z,99992.13
2022-09-28T22:15:55.017Z,99989.53
2022-09-28T22:18:21.372Z,99983.72
2022-09-28T22:20:47.601Z,99989.53
2022-09-28T22:23:13.886Z,99988.94
2022-09-28T22:25:40.132Z,99986.34
2022-09-28T22:28:06.438Z,99973.09
2022-09-28T22:30:34.043Z,99991.13
2022-09-28T22:33:00.362Z,99994.13
2022-09-28T22:35:26.585Z,99990.13
2022-09-28T22:37:52.865Z,99972.28
2022-09-28T22:40:19.187Z,99990.53
2022-09-28T22:42:45.533Z,99991.31
2022-09-28T22:45:11.782Z,99996.44
2022-09-28T22:47:38.090Z,99990.03
2022-09-28T22:50:04.481Z,99986.63
2022-09-28T22:52:30.783Z,99985.22
2022-09-28T22:54:57.022Z,99991.03
2022-09-28T22:57:23.334Z,99981.81
2022-09-28T22:59:49.574Z,99995.22
2022-09-28T23:02:15.904Z,99976.34
2022-09-28T23:04:42.142Z,99993.81
2022-09-28T23:07:08.457Z,99983.38
2022-09-28T23:09:34.702Z,99997.59
2022-09-28T23:12:01.242Z,99983.97
2022-09-28T23:14:27.555Z,100003.19
2022-09-28T23:16:53.782Z,99994.59
2022-09-28T23:19:20.308Z,100005.00
2022-09-28T23:21:46.811Z,100002.59
2022-09-28T23:24:13.158Z,99997.75
2022-09-28T23:26:39.395Z,100000.53
2022-09-28T23:29:05.723Z,99991.91
2022-09-28T23:31:32.606Z,100001.75
2022-09-28T23:34:04.758Z,100004.53
2022-09-28T23:36:31.928Z,100005.53
2022-09-28T23:38:58.267Z,100001.31
2022-09-28T23:41:24.524Z,100006.13
2022-09-28T23:43:51.016Z,100003.88
2022-09-28T23:46:20.702Z,99999.66
2022-09-28T23:48:47.993Z,100007.03
2022-09-28T23:51:14.298Z,99995.25
2022-09-28T23:53:40.515Z,100009.44
2022-09-28T23:56:06.812Z,100001.22
2022-09-28T23:58:33.060Z,100002.63
